sensor_id;sensor_type;location;lat;lon;timestamp;P1;durP1;ratioP1;P2;durP2;ratioP2
26774;SDS011;14362;51.902;7.626;2022-09-09T00:02:51;10.75;;;2.00;;
26774;SDS011;14362;51.902;7.626;2022-09-09T00:07:04;3.22;;;1.40;;
26774;SDS011;14362;51.902;7.626;2022-09-09T00:11:07;3.65;;;1.58;;
26774;SDS011;14362;51.902;7.626;2022-09-09T00:15:16;2.50;;;1.48;;
26774;SDS011;14362;51.902;7.626;2022-09-09T00:19:22;3.22;;;1.38;;
26774;SDS011;14362;51.902;7.626;2022-09-09T00:23:30;2.35;;;1.23;;
26774;SDS011;14362;51.902;7.626;2022-09-09T00:27:37;2.97;;;1.20;;
26774;SDS011;14362;51.902;7.626;2022-09-09T00:31:44;4.18;;;1.10;;
26774;SDS011;14362;51.902;7.626;2022-09-09T00:35:47;5.37;;;1.17;;
26774;SDS011;14362;51.902;7.626;2022-09-09T00:39:49;1.30;;;0.77;;
26774;SDS011;14362;51.902;7.626;2022-09-09T00:43:56;2.15;;;0.98;;
26774;SDS011;14362;51.902;7.626;2022-09-09T00:48:03;2.28;;;0.90;;
26774;SDS011;14362;51.902;7.626;2022-09-09T00:52:14;3.17;;;0.80;;
26774;SDS011;14362;51.902;7.626;2022-09-09T00:56:29;2.38;;;0.75;;
26774;SDS011;14362;51.902;7.626;2022-09-09T01:00:43;3.13;;;1.02;;
26774;SDS011;14362;51.902;7.626;2022-09-09T01:04:48;2.15;;;0.80;;
26774;SDS011;14362;51.902;7.626;2022-09-09T01:08:58;1.98;;;0.80;;
26774;SDS011;14362;51.902;7.626;2022-09-09T01:13:08;1.75;;;0.73;;
26774;SDS011;14362;51.902;7.626;2022-09-09T01:17:17;2.58;;;1.10;;
26774;SDS011;14362;51.902;7.626;2022-09-09T01:21:25;2.85;;;1.23;;
26774;SDS011;14362;51.902;7.626;2022-09-09T01:30:14;1.63;;;1.00;;
26774;SDS011;14362;51.902;7.626;2022-09-09T01:34:18;2.65;;;1.15;;
26774;SDS011;14362;51.902;7.626;2022-09-09T01:38:21;2.05;;;1.05;;
26774;SDS011;14362;51.902;7.626;2022-09-09T01:42:25;3.90;;;1.10;;
26774;SDS011;14362;51.902;7.626;2022-09-09T01:46:26;2.20;;;1.42;;
26774;SDS011;14362;51.902;7.626;2022-09-09T01:50:29;2.75;;;1.25;;
26774;SDS011;14362;51.902;7.626;2022-09-09T01:54:31;3.10;;;1.40;;
26774;SDS011;14362;51.902;7.626;2022-09-09T01:58:37;1.85;;;1.00;;
26774;SDS011;14362;51.902;7.626;2022-09-09T02:02:51;2.90;;;1.67;;
26774;SDS011;14362;51.902;7.626;2022-09-09T02:07:00;1.63;;;1.15;;
26774;SDS011;14362;51.902;7.626;2022-09-09T02:11:03;2.63;;;1.25;;
26774;SDS011;14362;51.902;7.626;2022-09-09T02:15:11;2.30;;;1.20;;
26774;SDS011;14362;51.902;7.626;2022-09-09T02:19:19;1.55;;;1.10;;
26774;SDS011;14362;51.902;7.626;2022-09-09T02:23:25;1.70;;;1.60;;
26774;SDS011;14362;51.902;7.626;2022-09-09T02:27:28;1.17;;;1.08;;
26774;SDS011;14362;51.902;7.626;2022-09-09T02:31:32;3.22;;;1.30;;
26774;SDS011;14362;51.902;7.626;2022-09-09T02:35:36;1.60;;;1.30;;
26774;SDS011;14362;51.902;7.626;2022-09-09T02:39:39;2.53;;;1.38;;
26774;SDS011;14362;51.902;7.626;2022-09-09T02:43:40;3.78;;;1.33;;
26774;SDS011;14362;51.902;7.626;2022-09-09T02:47:43;4.05;;;1.60;;
26774;SDS011;14362;51.902;7.626;2022-09-09T02:51:51;3.17;;;1.83;;
26774;SDS011;14362;51.902;7.626;2022-09-09T02:56:02;3.50;;;1.70;;
26774;SDS011;14362;51.902;7.626;2022-09-09T03:00:07;3.20;;;1.90;;
26774;SDS011;14362;51.902;7.626;2022-09-09T03:04:11;3.60;;;2.25;;
26774;SDS011;14362;51.902;7.626;2022-09-09T03:08:12;2.63;;;2.20;;
26774;SDS011;14362;51.902;7.626;2022-09-09T03:12:14;6.10;;;2.50;;
26774;SDS011;14362;51.902;7.626;2022-09-09T03:16:16;3.30;;;2.75;;
26774;SDS011;14362;51.902;7.626;2022-09-09T03:20:19;6.72;;;3.08;;
26774;SDS011;14362;51.902;7.626;2022-09-09T03:24:20;3.58;;;3.00;;
26774;SDS011;14362;51.902;7.626;2022-09-09T03:28:22;4.18;;;2.85;;
26774;SDS011;14362;51.902;7.626;2022-09-09T03:32:29;5.07;;;3.40;;
26774;SDS011;14362;51.902;7.626;2022-09-09T03:36:32;4.43;;;3.55;;
26774;SDS011;14362;51.902;7.626;2022-09-09T03:40:34;4.75;;;3.30;;
26774;SDS011;14362;51.902;7.626;2022-09-09T03:44:36;6.00;;;3.35;;
26774;SDS011;14362;51.902;7.626;2022-09-09T03:48:37;4.03;;;3.28;;
26774;SDS011;14362;51.902;7.626;2022-09-09T03:52:40;4.43;;;3.30;;
26774;SDS011;14362;51.902;7.626;2022-09-09T03:56:42;5.88;;;3.60;;
26774;SDS011;14362;51.902;7.626;2022-09-09T04:00:43;4.95;;;3.00;;
26774;SDS011;14362;51.902;7.626;2022-09-09T04:04:53;3.80;;;3.10;;
26774;SDS011;14362;51.902;7.626;2022-09-09T04:08:56;3.38;;;2.70;;
26774;SDS011;14362;51.902;7.626;2022-09-09T04:12:58;5.25;;;2.63;;
26774;SDS011;14362;51.902;7.626;2022-09-09T04:16:59;6.25;;;3.30;;
26774;SDS011;14362;51.902;7.626;2022-09-09T04:21:04;4.37;;;3.80;;
26774;SDS011;14362;51.902;7.626;2022-09-09T04:25:08;4.00;;;3.22;;
26774;SDS011;14362;51.902;7.626;2022-09-09T04:29:09;5.07;;;3.67;;
26774;SDS011;14362;51.902;7.626;2022-09-09T04:33:11;4.10;;;3.30;;
26774;SDS011;14362;51.902;7.626;2022-09-09T04:37:13;4.50;;;3.40;;
26774;SDS011;14362;51.902;7.626;2022-09-09T04:41:16;5.82;;;3.20;;
26774;SDS011;14362;51.902;7.626;2022-09-09T04:45:17;4.82;;;3.35;;
26774;SDS011;14362;51.902;7.626;2022-09-09T04:49:19;6.32;;;3.30;;
26774;SDS011;14362;51.902;7.626;2022-09-09T04:53:20;7.00;;;3.25;;
26774;SDS011;14362;51.902;7.626;2022-09-09T04:57:23;5.88;;;3.38;;
26774;SDS011;14362;51.902;7.626;2022-09-09T05:01:25;4.55;;;2.97;;
26774;SDS011;14362;51.902;7.626;2022-09-09T05:05:27;4.53;;;2.83;;
26774;SDS011;14362;51.902;7.626;2022-09-09T05:09:28;6.30;;;2.83;;
26774;SDS011;14362;51.902;7.626;2022-09-09T05:13:31;4.10;;;2.67;;
26774;SDS011;14362;51.902;7.626;2022-09-09T05:17:32;4.03;;;2.75;;
26774;SDS011;14362;51.902;7.626;2022-09-09T05:21:34;4.68;;;2.72;;
26774;SDS011;14362;51.902;7.626;2022-09-09T05:25:35;4.05;;;2.40;;
26774;SDS011;14362;51.902;7.626;2022-09-09T05:29:38;3.85;;;2.25;;
26774;SDS011;14362;51.902;7.626;2022-09-09T05:33:41;4.40;;;2.47;;
26774;SDS011;14362;51.902;7.626;2022-09-09T05:37:45;5.00;;;2.63;;
26774;SDS011;14362;51.902;7.626;2022-09-09T05:41:47;6.43;;;2.20;;
26774;SDS011;14362;51.902;7.626;2022-09-09T05:45:59;3.30;;;1.88;;
26774;SDS011;14362;51.902;7.626;2022-09-09T05:50:02;5.38;;;2.47;;
26774;SDS011;14362;51.902;7.626;2022-09-09T05:54:05;4.75;;;2.25;;
26774;SDS011;14362;51.902;7.626;2022-09-09T05:58:06;5.82;;;2.20;;
26774;SDS011;14362;51.902;7.626;2022-09-09T06:02:09;5.28;;;2.72;;
26774;SDS011;14362;51.902;7.626;2022-09-09T06:06:11;3.88;;;1.95;;
26774;SDS011;14362;51.902;7.626;2022-09-09T06:10:14;3.75;;;2.40;;
26774;SDS011;14362;51.902;7.626;2022-09-09T06:14:16;3.45;;;2.00;;
26774;SDS011;14362;51.902;7.626;2022-09-09T06:18:19;6.10;;;2.40;;
26774;SDS011;14362;51.902;7.626;2022-09-09T06:22:20;6.07;;;2.67;;
26774;SDS011;14362;51.902;7.626;2022-09-09T06:26:22;4.80;;;2.22;;
26774;SDS011;14362;51.902;7.626;2022-09-09T06:30:25;4.53;;;2.25;;
26774;SDS011;14362;51.902;7.626;2022-09-09T06:34:28;4.72;;;2.03;;
26774;SDS011;14362;51.902;7.626;2022-09-09T06:38:30;7.63;;;2.47;;
26774;SDS011;14362;51.902;7.626;2022-09-09T06:42:31;5.22;;;2.20;;
26774;SDS011;14362;51.902;7.626;2022-09-09T06:46:33;5.95;;;2.47;;
26774;SDS011;14362;51.902;7.626;2022-09-09T06:50:36;8.57;;;2.20;;
26774;SDS011;14362;51.902;7.626;2022-09-09T06:54:38;6.60;;;2.28;;
26774;SDS011;14362;51.902;7.626;2022-09-09T06:58:40;4.97;;;2.20;;
26774;SDS011;14362;51.902;7.626;2022-09-09T07:02:43;6.72;;;2.35;;
26774;SDS011;14362;51.902;7.626;2022-09-09T07:06:46;6.50;;;2.10;;
26774;SDS011;14362;51.902;7.626;2022-09-09T07:10:48;7.07;;;2.42;;
26774;SDS011;14362;51.902;7.626;2022-09-09T07:14:49;5.53;;;2.50;;
26774;SDS011;14362;51.902;7.626;2022-09-09T07:18:51;6.03;;;2.22;;
26774;SDS011;14362;51.902;7.626;2022-09-09T07:22:58;9.15;;;2.42;;
26774;SDS011;14362;51.902;7.626;2022-09-09T07:27:00;6.32;;;2.63;;
26774;SDS011;14362;51.902;7.626;2022-09-09T07:31:03;4.00;;;1.90;;
26774;SDS011;14362;51.902;7.626;2022-09-09T07:35:06;6.05;;;1.92;;
26774;SDS011;14362;51.902;7.626;2022-09-09T07:39:10;5.72;;;2.10;;
26774;SDS011;14362;51.902;7.626;2022-09-09T07:43:13;5.07;;;2.10;;
26774;SDS011;14362;51.902;7.626;2022-09-09T07:47:18;5.13;;;2.00;;
26774;SDS011;14362;51.902;7.626;2022-09-09T07:51:21;3.58;;;1.70;;
26774;SDS011;14362;51.902;7.626;2022-09-09T07:55:25;3.80;;;1.80;;
26774;SDS011;14362;51.902;7.626;2022-09-09T07:59:26;4.13;;;1.90;;
26774;SDS011;14362;51.902;7.626;2022-09-09T08:03:30;7.10;;;2.08;;
26774;SDS011;14362;51.902;7.626;2022-09-09T08:07:31;5.68;;;1.75;;
26774;SDS011;14362;51.902;7.626;2022-09-09T08:11:34;6.38;;;1.75;;
26774;SDS011;14362;51.902;7.626;2022-09-09T08:15:36;6.47;;;1.83;;
26774;SDS011;14362;51.902;7.626;2022-09-09T08:19:38;7.03;;;1.88;;
26774;SDS011;14362;51.902;7.626;2022-09-09T08:23:40;4.38;;;1.70;;
26774;SDS011;14362;51.902;7.626;2022-09-09T08:27:43;2.35;;;1.20;;
26774;SDS011;14362;51.902;7.626;2022-09-09T08:31:45;4.70;;;1.60;;
26774;SDS011;14362;51.902;7.626;2022-09-09T08:35:51;9.70;;;1.65;;
26774;SDS011;14362;51.902;7.626;2022-09-09T08:44:00;5.03;;;2.28;;
26774;SDS011;14362;51.902;7.626;2022-09-09T08:48:12;7.32;;;3.42;;
26774;SDS011;14362;51.902;7.626;2022-09-09T08:52:23;3.88;;;2.10;;
26774;SDS011;14362;51.902;7.626;2022-09-09T08:56:30;3.42;;;2.05;;
26774;SDS011;14362;51.902;7.626;2022-09-09T09:00:35;4.70;;;2.30;;
26774;SDS011;14362;51.902;7.626;2022-09-09T09:04:50;6.70;;;2.03;;
26774;SDS011;14362;51.902;7.626;2022-09-09T09:09:04;6.28;;;1.90;;
26774;SDS011;14362;51.902;7.626;2022-09-09T09:13:11;8.80;;;1.90;;
26774;SDS011;14362;51.902;7.626;2022-09-09T09:17:18;5.22;;;1.70;;
26774;SDS011;14362;51.902;7.626;2022-09-09T09:21:21;6.68;;;1.70;;
26774;SDS011;14362;51.902;7.626;2022-09-09T09:25:35;5.95;;;1.50;;
26774;SDS011;14362;51.902;7.626;2022-09-09T09:29:42;5.68;;;1.75;;
26774;SDS011;14362;51.902;7.626;2022-09-09T09:33:48;9.05;;;1.92;;
26774;SDS011;14362;51.902;7.626;2022-09-09T09:37:52;4.88;;;1.50;;
26774;SDS011;14362;51.902;7.626;2022-09-09T09:41:54;4.82;;;1.40;;
26774;SDS011;14362;51.902;7.626;2022-09-09T09:45:56;4.40;;;1.40;;
26774;SDS011;14362;51.902;7.626;2022-09-09T09:50:00;4.78;;;1.70;;
26774;SDS011;14362;51.902;7.626;2022-09-09T09:54:03;4.95;;;1.55;;
26774;SDS011;14362;51.902;7.626;2022-09-09T09:58:13;5.63;;;2.00;;
26774;SDS011;14362;51.902;7.626;2022-09-09T10:02:18;5.40;;;1.98;;
26774;SDS011;14362;51.902;7.626;2022-09-09T10:06:30;6.23;;;1.97;;
26774;SDS011;14362;51.902;7.626;2022-09-09T10:10:39;4.10;;;1.90;;
26774;SDS011;14362;51.902;7.626;2022-09-09T10:14:52;4.30;;;2.10;;
26774;SDS011;14362;51.902;7.626;2022-09-09T10:19:02;5.00;;;2.25;;
26774;SDS011;14362;51.902;7.626;2022-09-09T10:23:11;4.80;;;1.92;;
26774;SDS011;14362;51.902;7.626;2022-09-09T10:27:23;4.43;;;1.98;;
26774;SDS011;14362;51.902;7.626;2022-09-09T10:31:33;4.55;;;1.90;;
26774;SDS011;14362;51.902;7.626;2022-09-09T10:35:46;4.38;;;2.38;;
26774;SDS011;14362;51.902;7.626;2022-09-09T10:39:56;7.35;;;2.17;;
26774;SDS011;14362;51.902;7.626;2022-09-09T10:44:09;5.88;;;2.35;;
26774;SDS011;14362;51.902;7.626;2022-09-09T10:48:37;5.50;;;2.10;;
26774;SDS011;14362;51.902;7.626;2022-09-09T10:52:49;4.88;;;2.30;;
26774;SDS011;14362;51.902;7.626;2022-09-09T10:57:03;3.50;;;2.33;;
26774;SDS011;14362;51.902;7.626;2022-09-09T11:01:14;4.95;;;2.33;;
26774;SDS011;14362;51.902;7.626;2022-09-09T11:05:20;7.28;;;2.30;;
26774;SDS011;14362;51.902;7.626;2022-09-09T11:09:25;7.82;;;2.40;;
26774;SDS011;14362;51.902;7.626;2022-09-09T11:13:34;9.48;;;3.40;;
26774;SDS011;14362;51.902;7.626;2022-09-09T11:17:43;5.10;;;3.22;;
26774;SDS011;14362;51.902;7.626;2022-09-09T11:21:49;4.85;;;2.08;;
26774;SDS011;14362;51.902;7.626;2022-09-09T11:25:52;4.80;;;1.88;;
26774;SDS011;14362;51.902;7.626;2022-09-09T11:30:11;6.32;;;1.88;;
26774;SDS011;14362;51.902;7.626;2022-09-09T11:34:21;4.70;;;1.55;;
26774;SDS011;14362;51.902;7.626;2022-09-09T11:38:36;3.75;;;1.30;;
26774;SDS011;14362;51.902;7.626;2022-09-09T11:42:43;2.35;;;1.30;;
26774;SDS011;14362;51.902;7.626;2022-09-09T11:46:46;3.05;;;1.80;;
26774;SDS011;14362;51.902;7.626;2022-09-09T11:50:59;3.97;;;1.80;;
26774;SDS011;14362;51.902;7.626;2022-09-09T11:55:08;6.75;;;2.10;;
26774;SDS011;14362;51.902;7.626;2022-09-09T11:59:19;3.22;;;1.40;;
26774;SDS011;14362;51.902;7.626;2022-09-09T12:03:36;3.25;;;1.63;;
26774;SDS011;14362;51.902;7.626;2022-09-09T12:07:46;5.90;;;1.20;;
26774;SDS011;14362;51.902;7.626;2022-09-09T12:12:04;4.10;;;1.20;;
26774;SDS011;14362;51.902;7.626;2022-09-09T12:16:26;2.50;;;1.00;;
26774;SDS011;14362;51.902;7.626;2022-09-09T12:20:32;3.88;;;1.30;;
26774;SDS011;14362;51.902;7.626;2022-09-09T12:24:37;2.15;;;0.80;;
26774;SDS011;14362;51.902;7.626;2022-09-09T12:28:46;2.13;;;1.02;;
26774;SDS011;14362;51.902;7.626;2022-09-09T12:32:59;3.90;;;0.93;;
26774;SDS011;14362;51.902;7.626;2022-09-09T12:37:05;2.67;;;1.25;;
26774;SDS011;14362;51.902;7.626;2022-09-09T12:41:18;2.85;;;1.20;;
26774;SDS011;14362;51.902;7.626;2022-09-09T12:45:22;5.13;;;1.30;;
26774;SDS011;14362;51.902;7.626;2022-09-09T12:49:27;1.90;;;0.82;;
26774;SDS011;14362;51.902;7.626;2022-09-09T12:53:35;2.95;;;1.10;;
26774;SDS011;14362;51.902;7.626;2022-09-09T12:57:39;3.17;;;1.23;;
26774;SDS011;14362;51.902;7.626;2022-09-09T13:01:42;2.05;;;1.15;;
26774;SDS011;14362;51.902;7.626;2022-09-09T13:05:44;3.53;;;1.27;;
26774;SDS011;14362;51.902;7.626;2022-09-09T13:09:48;2.15;;;0.98;;
26774;SDS011;14362;51.902;7.626;2022-09-09T13:13:50;2.20;;;1.00;;
26774;SDS011;14362;51.902;7.626;2022-09-09T13:17:54;2.13;;;1.17;;
26774;SDS011;14362;51.902;7.626;2022-09-09T13:21:57;2.15;;;1.10;;
26774;SDS011;14362;51.902;7.626;2022-09-09T13:26:01;3.53;;;1.52;;
26774;SDS011;14362;51.902;7.626;2022-09-09T13:30:19;2.55;;;1.15;;
26774;SDS011;14362;51.902;7.626;2022-09-09T13:34:26;3.17;;;1.52;;
26774;SDS011;14362;51.902;7.626;2022-09-09T13:38:30;4.22;;;1.30;;
26774;SDS011;14362;51.902;7.626;2022-09-09T13:42:37;3.30;;;1.48;;
26774;SDS011;14362;51.902;7.626;2022-09-09T13:46:43;2.42;;;1.30;;
26774;SDS011;14362;51.902;7.626;2022-09-09T13:50:53;1.38;;;0.80;;
26774;SDS011;14362;51.902;7.626;2022-09-09T13:54:55;2.20;;;0.85;;
26774;SDS011;14362;51.902;7.626;2022-09-09T13:58:59;2.15;;;1.00;;
26774;SDS011;14362;51.902;7.626;2022-09-09T14:03:00;2.88;;;0.80;;
26774;SDS011;14362;51.902;7.626;2022-09-09T14:07:02;3.35;;;0.93;;
26774;SDS011;14362;51.902;7.626;2022-09-09T14:11:04;1.98;;;0.80;;
26774;SDS011;14362;51.902;7.626;2022-09-09T14:15:09;2.35;;;0.88;;
26774;SDS011;14362;51.902;7.626;2022-09-09T14:19:12;2.85;;;1.00;;
26774;SDS011;14362;51.902;7.626;2022-09-09T14:23:13;2.35;;;0.90;;
26774;SDS011;14362;51.902;7.626;2022-09-09T14:27:16;3.40;;;0.90;;
26774;SDS011;14362;51.902;7.626;2022-09-09T14:31:20;5.38;;;1.15;;
26774;SDS011;14362;51.902;7.626;2022-09-09T14:35:21;1.52;;;0.70;;
26774;SDS011;14362;51.902;7.626;2022-09-09T14:39:23;2.50;;;0.80;;
26774;SDS011;14362;51.902;7.626;2022-09-09T14:43:25;2.58;;;0.80;;
26774;SDS011;14362;51.902;7.626;2022-09-09T14:47:28;1.83;;;0.90;;
26774;SDS011;14362;51.902;7.626;2022-09-09T14:51:30;2.42;;;0.90;;
26774;SDS011;14362;51.902;7.626;2022-09-09T14:55:31;2.80;;;1.48;;
26774;SDS011;14362;51.902;7.626;2022-09-09T14:59:33;4.50;;;1.40;;
26774;SDS011;14362;51.902;7.626;2022-09-09T15:03:36;5.20;;;2.15;;
26774;SDS011;14362;51.902;7.626;2022-09-09T15:07:38;4.03;;;1.38;;
26774;SDS011;14362;51.902;7.626;2022-09-09T15:11:39;2.15;;;1.20;;
26774;SDS011;14362;51.902;7.626;2022-09-09T15:15:41;2.53;;;1.27;;
26774;SDS011;14362;51.902;7.626;2022-09-09T15:19:45;2.28;;;1.40;;
26774;SDS011;14362;51.902;7.626;2022-09-09T15:23:47;3.33;;;1.52;;
26774;SDS011;14362;51.902;7.626;2022-09-09T15:27:49;2.25;;;1.10;;
26774;SDS011;14362;51.902;7.626;2022-09-09T15:31:50;2.97;;;1.23;;
26774;SDS011;14362;51.902;7.626;2022-09-09T15:35:53;1.75;;;1.00;;
26774;SDS011;14362;51.902;7.626;2022-09-09T15:39:54;4.15;;;1.27;;
26774;SDS011;14362;51.902;7.626;2022-09-09T15:43:58;3.80;;;1.25;;
26774;SDS011;14362;51.902;7.626;2022-09-09T15:48:01;3.05;;;1.40;;
26774;SDS011;14362;51.902;7.626;2022-09-09T15:52:04;3.40;;;1.30;;
26774;SDS011;14362;51.902;7.626;2022-09-09T15:56:06;3.08;;;1.35;;
26774;SDS011;14362;51.902;7.626;2022-09-09T16:00:08;3.30;;;1.45;;
26774;SDS011;14362;51.902;7.626;2022-09-09T16:04:13;4.85;;;1.50;;
26774;SDS011;14362;51.902;7.626;2022-09-09T16:08:16;2.97;;;1.60;;
26774;SDS011;14362;51.902;7.626;2022-09-09T16:12:18;2.65;;;1.33;;
26774;SDS011;14362;51.902;7.626;2022-09-09T16:16:20;4.72;;;1.80;;
26774;SDS011;14362;51.902;7.626;2022-09-09T16:20:24;2.78;;;1.40;;
26774;SDS011;14362;51.902;7.626;2022-09-09T16:24:27;4.00;;;1.67;;
26774;SDS011;14362;51.902;7.626;2022-09-09T16:28:28;4.88;;;2.00;;
26774;SDS011;14362;51.902;7.626;2022-09-09T16:32:29;5.75;;;2.35;;
26774;SDS011;14362;51.902;7.626;2022-09-09T16:36:32;4.60;;;2.15;;
26774;SDS011;14362;51.902;7.626;2022-09-09T16:40:40;7.28;;;2.47;;
26774;SDS011;14362;51.902;7.626;2022-09-09T16:44:41;5.45;;;2.42;;
26774;SDS011;14362;51.902;7.626;2022-09-09T16:48:43;3.60;;;2.20;;
26774;SDS011;14362;51.902;7.626;2022-09-09T16:52:46;5.07;;;1.92;;
26774;SDS011;14362;51.902;7.626;2022-09-09T16:56:48;4.18;;;1.88;;
26774;SDS011;14362;51.902;7.626;2022-09-09T17:00:50;3.75;;;2.08;;
26774;SDS011;14362;51.902;7.626;2022-09-09T17:04:51;3.63;;;1.95;;
26774;SDS011;14362;51.902;7.626;2022-09-09T17:08:53;4.25;;;1.65;;
26774;SDS011;14362;51.902;7.626;2022-09-09T17:12:57;4.13;;;2.22;;
26774;SDS011;14362;51.902;7.626;2022-09-09T17:16:58;4.00;;;1.85;;
26774;SDS011;14362;51.902;7.626;2022-09-09T17:21:02;6.30;;;1.40;;
26774;SDS011;14362;51.902;7.626;2022-09-09T17:25:04;2.13;;;1.07;;
26774;SDS011;14362;51.902;7.626;2022-09-09T17:29:08;1.73;;;1.10;;
26774;SDS011;14362;51.902;7.626;2022-09-09T17:33:11;1.92;;;0.90;;
26774;SDS011;14362;51.902;7.626;2022-09-09T17:37:12;4.78;;;1.90;;
26774;SDS011;14362;51.902;7.626;2022-09-09T17:41:14;2.65;;;0.85;;
26774;SDS011;14362;51.902;7.626;2022-09-09T17:45:18;0.77;;;0.77;;
26774;SDS011;14362;51.902;7.626;2022-09-09T17:49:20;3.30;;;0.93;;
26774;SDS011;14362;51.902;7.626;2022-09-09T17:53:21;1.33;;;0.80;;
26774;SDS011;14362;51.902;7.626;2022-09-09T17:57:23;1.92;;;1.08;;
26774;SDS011;14362;51.902;7.626;2022-09-09T18:01:27;2.53;;;1.10;;
26774;SDS011;14362;51.902;7.626;2022-09-09T18:05:30;2.30;;;1.05;;
26774;SDS011;14362;51.902;7.626;2022-09-09T18:09:31;2.50;;;1.20;;
26774;SDS011;14362;51.902;7.626;2022-09-09T18:13:33;3.17;;;1.10;;
26774;SDS011;14362;51.902;7.626;2022-09-09T18:17:37;2.25;;;1.10;;
26774;SDS011;14362;51.902;7.626;2022-09-09T18:21:38;1.67;;;1.10;;
26774;SDS011;14362;51.902;7.626;2022-09-09T18:25:40;3.05;;;1.08;;
26774;SDS011;14362;51.902;7.626;2022-09-09T18:29:42;1.92;;;0.98;;
26774;SDS011;14362;51.902;7.626;2022-09-09T18:33:45;1.55;;;0.95;;
26774;SDS011;14362;51.902;7.626;2022-09-09T18:37:48;2.63;;;1.30;;
26774;SDS011;14362;51.902;7.626;2022-09-09T18:41:50;3.13;;;1.70;;
26774;SDS011;14362;51.902;7.626;2022-09-09T18:45:52;1.40;;;1.05;;
26774;SDS011;14362;51.902;7.626;2022-09-09T18:49:55;1.42;;;1.33;;
26774;SDS011;14362;51.902;7.626;2022-09-09T18:53:58;2.72;;;1.23;;
26774;SDS011;14362;51.902;7.626;2022-09-09T18:58:01;1.95;;;1.52;;
26774;SDS011;14362;51.902;7.626;2022-09-09T19:02:03;2.13;;;1.30;;
26774;SDS011;14362;51.902;7.626;2022-09-09T19:06:06;1.23;;;1.13;;
26774;SDS011;14362;51.902;7.626;2022-09-09T19:10:09;2.78;;;1.52;;
26774;SDS011;14362;51.902;7.626;2022-09-09T19:14:11;1.95;;;1.65;;
26774;SDS011;14362;51.902;7.626;2022-09-09T19:18:14;3.70;;;1.83;;
26774;SDS011;14362;51.902;7.626;2022-09-09T19:22:17;3.50;;;2.40;;
26774;SDS011;14362;51.902;7.626;2022-09-09T19:26:18;2.45;;;1.77;;
26774;SDS011;14362;51.902;7.626;2022-09-09T19:30:19;3.17;;;2.05;;
26774;SDS011;14362;51.902;7.626;2022-09-09T19:34:21;3.20;;;2.10;;
26774;SDS011;14362;51.902;7.626;2022-09-09T19:38:24;2.53;;;1.98;;
26774;SDS011;14362;51.902;7.626;2022-09-09T19:42:25;3.08;;;2.00;;
26774;SDS011;14362;51.902;7.626;2022-09-09T19:46:29;2.90;;;2.20;;
26774;SDS011;14362;51.902;7.626;2022-09-09T19:50:33;4.05;;;2.42;;
26774;SDS011;14362;51.902;7.626;2022-09-09T19:54:37;3.28;;;2.15;;
26774;SDS011;14362;51.902;7.626;2022-09-09T19:58:39;5.65;;;2.60;;
26774;SDS011;14362;51.902;7.626;2022-09-09T20:02:41;5.82;;;5.15;;
26774;SDS011;14362;51.902;7.626;2022-09-09T20:06:43;5.30;;;4.80;;
26774;SDS011;14362;51.902;7.626;2022-09-09T20:10:50;6.97;;;6.28;;
26774;SDS011;14362;51.902;7.626;2022-09-09T20:14:52;9.00;;;7.40;;
26774;SDS011;14362;51.902;7.626;2022-09-09T20:18:55;7.85;;;7.25;;
26774;SDS011;14362;51.902;7.626;2022-09-09T20:22:57;8.65;;;7.85;;
26774;SDS011;14362;51.902;7.626;2022-09-09T20:27:00;8.02;;;7.32;;
26774;SDS011;14362;51.902;7.626;2022-09-09T20:31:02;7.85;;;7.25;;
26774;SDS011;14362;51.902;7.626;2022-09-09T20:35:04;9.02;;;8.13;;
26774;SDS011;14362;51.902;7.626;2022-09-09T20:39:07;8.45;;;7.60;;
26774;SDS011;14362;51.902;7.626;2022-09-09T20:43:12;7.80;;;7.20;;
26774;SDS011;14362;51.902;7.626;2022-09-09T20:47:13;8.25;;;7.45;;
26774;SDS011;14362;51.902;7.626;2022-09-09T20:51:16;7.80;;;7.10;;
26774;SDS011;14362;51.902;7.626;2022-09-09T20:55:18;8.30;;;7.57;;
26774;SDS011;14362;51.902;7.626;2022-09-09T20:59:22;7.47;;;6.60;;
26774;SDS011;14362;51.902;7.626;2022-09-09T21:07:29;5.72;;;5.22;;
26774;SDS011;14362;51.902;7.626;2022-09-09T21:11:30;7.70;;;4.85;;
26774;SDS011;14362;51.902;7.626;2022-09-09T21:15:33;5.97;;;4.93;;
26774;SDS011;14362;51.902;7.626;2022-09-09T21:19:34;5.43;;;4.85;;
26774;SDS011;14362;51.902;7.626;2022-09-09T21:23:36;6.03;;;4.72;;
26774;SDS011;14362;51.902;7.626;2022-09-09T21:27:38;5.20;;;4.00;;
26774;SDS011;14362;51.902;7.626;2022-09-09T21:31:41;4.65;;;4.18;;
26774;SDS011;14362;51.902;7.626;2022-09-09T21:35:43;6.18;;;5.28;;
26774;SDS011;14362;51.902;7.626;2022-09-09T21:39:44;7.65;;;4.68;;
26774;SDS011;14362;51.902;7.626;2022-09-09T21:43:50;5.07;;;4.55;;
26774;SDS011;14362;51.902;7.626;2022-09-09T21:47:53;4.35;;;3.65;;
26774;SDS011;14362;51.902;7.626;2022-09-09T21:51:54;9.43;;;5.22;;
26774;SDS011;14362;51.902;7.626;2022-09-09T21:55:59;7.13;;;4.60;;
26774;SDS011;14362;51.902;7.626;2022-09-09T22:00:03;8.77;;;5.50;;
26774;SDS011;14362;51.902;7.626;2022-09-09T22:04:09;4.55;;;4.15;;
26774;SDS011;14362;51.902;7.626;2022-09-09T22:08:11;5.35;;;4.05;;
26774;SDS011;14362;51.902;7.626;2022-09-09T22:12:13;6.45;;;3.60;;
26774;SDS011;14362;51.902;7.626;2022-09-09T22:16:16;5.53;;;4.07;;
26774;SDS011;14362;51.902;7.626;2022-09-09T22:20:19;4.18;;;3.15;;
26774;SDS011;14362;51.902;7.626;2022-09-09T22:24:21;6.38;;;3.50;;
26774;SDS011;14362;51.902;7.626;2022-09-09T22:28:23;9.77;;;3.70;;
26774;SDS011;14362;51.902;7.626;2022-09-09T22:32:24;5.00;;;3.25;;
26774;SDS011;14362;51.902;7.626;2022-09-09T22:36:27;5.35;;;3.50;;
26774;SDS011;14362;51.902;7.626;2022-09-09T22:40:33;4.80;;;2.92;;
26774;SDS011;14362;51.902;7.626;2022-09-09T22:44:35;5.60;;;3.05;;
26774;SDS011;14362;51.902;7.626;2022-09-09T22:48:36;5.38;;;3.53;;
26774;SDS011;14362;51.902;7.626;2022-09-09T22:52:40;4.70;;;3.17;;
26774;SDS011;14362;51.902;7.626;2022-09-09T22:56:42;5.53;;;3.53;;
26774;SDS011;14362;51.902;7.626;2022-09-09T23:00:43;5.30;;;3.20;;
26774;SDS011;14362;51.902;7.626;2022-09-09T23:04:45;4.15;;;3.00;;
26774;SDS011;14362;51.902;7.626;2022-09-09T23:08:48;6.22;;;3.20;;
26774;SDS011;14362;51.902;7.626;2022-09-09T23:12:50;5.47;;;3.17;;
26774;SDS011;14362;51.902;7.626;2022-09-09T23:16:52;4.32;;;3.30;;
26774;SDS011;14362;51.902;7.626;2022-09-09T23:20:55;5.95;;;3.58;;
26774;SDS011;14362;51.902;7.626;2022-09-09T23:25:01;6.97;;;3.17;;
26774;SDS011;14362;51.902;7.626;2022-09-09T23:29:04;7.45;;;3.67;;
26774;SDS011;14362;51.902;7.626;2022-09-09T23:33:06;5.95;;;3.50;;
26774;SDS011;14362;51.902;7.626;2022-09-09T23:37:08;4.10;;;3.42;;
26774;SDS011;14362;51.902;7.626;2022-09-09T23:41:12;4.63;;;3.40;;
26774;SDS011;14362;51.902;7.626;2022-09-09T23:45:15;4.80;;;3.40;;
26774;SDS011;14362;51.902;7.626;2022-09-09T23:49:17;4.47;;;3.30;;
26774;SDS011;14362;51.902;7.626;2022-09-09T23:53:18;5.13;;;3.55;;
26774;SDS011;14362;51.902;7.626;2022-09-09T23:57:21;5.05;;;3.53;;
